Time;durP1;ratioP1;P1;durP2;ratioP2;P2;SDS_P1;SDS_P2;PMS_P1;PMS_P2;Temp;Humidity;BMP_temperature;BMP_pressure;BME280_temperature;BME280_humidity;BME280_pressure;Samples;Min_cycle;Max_cycle;Signal;HPM_P1;HPM_P2
2022/05/25 00:01:36;;;;;;;1.57;0.87;;;14.20;99.90;;;;;;4994062;28;20274;-77
2022/05/25 00:04:02;;;;;;;2.10;0.80;;;14.20;99.90;;;;;;4993661;28;20175;-77
2022/05/25 00:06:28;;;;;;;1.00;0.67;;;14.20;99.90;;;;;;4992312;28;20423;-77
2022/05/25 00:08:53;;;;;;;1.23;0.70;;;14.20;99.90;;;;;;4995864;28;20426;-77
2022/05/25 00:11:19;;;;;;;0.67;0.67;;;14.20;99.90;;;;;;4994307;28;20195;-76
2022/05/25 00:13:44;;;;;;;0.90;0.80;;;14.20;99.90;;;;;;4994365;28;20660;-78
2022/05/25 00:16:10;;;;;;;4.43;1.60;;;14.20;99.90;;;;;;4993920;28;20194;-77
2022/05/25 00:18:36;;;;;;;1.07;0.90;;;14.20;99.90;;;;;;4993929;28;20175;-77
2022/05/25 00:21:02;;;;;;;1.63;1.00;;;14.30;99.90;;;;;;4993665;28;20573;-78
2022/05/25 00:23:27;;;;;;;4.10;0.70;;;14.30;99.90;;;;;;4993859;28;20202;-78
2022/05/25 00:25:53;;;;;;;2.00;0.90;;;14.30;99.90;;;;;;4993062;28;20414;-77
2022/05/25 00:28:18;;;;;;;2.07;0.63;;;14.20;99.90;;;;;;4993825;28;20203;-77
2022/05/25 00:30:45;;;;;;;1.10;0.90;;;14.20;99.90;;;;;;4993464;28;20182;-77
2022/05/25 00:33:12;;;;;;;0.90;0.70;;;14.20;99.90;;;;;;4993500;28;20210;-75
2022/05/25 00:35:38;;;;;;;0.73;0.67;;;14.30;99.90;;;;;;4993684;28;20425;-77
2022/05/25 00:38:06;;;;;;;0.57;0.50;;;14.30;99.90;;;;;;4992097;28;20481;-78
2022/05/25 00:40:43;;;;;;;3.70;1.43;;;14.30;99.90;;;;;;4993408;28;20421;-78
2022/05/25 00:43:10;;;;;;;2.00;0.70;;;14.40;99.90;;;;;;4993381;28;20421;-77
2022/05/25 00:45:40;;;;;;;1.90;0.97;;;14.40;99.90;;;;;;4993526;28;20413;-78
2022/05/25 00:48:08;;;;;;;1.40;1.30;;;14.40;99.90;;;;;;4993189;28;20452;-75
2022/05/25 00:53:21;;;;;;;1.90;0.80;;;14.30;99.90;;;;;;4993272;28;20556;-77
2022/05/25 00:55:48;;;;;;;2.57;1.10;;;14.30;99.90;;;;;;4993354;28;20825;-77
2022/05/25 00:58:14;;;;;;;0.90;0.70;;;14.20;99.90;;;;;;4993442;28;20458;-77
2022/05/25 02:31:21;;;;;;;2.70;0.80;;;13.50;99.90;;;;;;5795638;23;21011;-77
2022/05/25 02:33:52;;;;;;;1.10;0.70;;;13.50;99.90;;;;;;5024998;28;20464;-73
2022/05/25 02:36:19;;;;;;;4.97;0.77;;;13.50;99.90;;;;;;5032904;28;20432;-74
2022/05/25 02:38:45;;;;;;;0.80;0.67;;;13.40;99.90;;;;;;5022348;28;20458;-77
2022/05/25 02:41:26;;;;;;;0.80;0.67;;;13.40;99.90;;;;;;5013452;28;20465;-77
2022/05/25 02:43:51;;;;;;;2.20;0.60;;;13.40;99.90;;;;;;5014372;28;20236;-77
2022/05/25 02:46:17;;;;;;;1.57;0.97;;;13.30;99.90;;;;;;5014411;28;20409;-77
2022/05/25 02:48:42;;;;;;;0.80;0.60;;;13.30;99.90;;;;;;5014127;28;20309;-75
2022/05/25 02:51:08;;;;;;;2.20;0.83;;;13.30;99.90;;;;;;5021114;28;20205;-77
2022/05/25 02:53:34;;;;;;;1.13;0.73;;;13.30;99.90;;;;;;5033127;28;20201;-77
2022/05/25 02:56:05;;;;;;;1.67;0.80;;;13.20;99.90;;;;;;5034056;28;20181;-74
2022/05/25 02:58:31;;;;;;;2.43;0.90;;;13.20;99.90;;;;;;5033805;28;20412;-77
2022/05/25 03:00:56;;;;;;;2.63;1.00;;;13.10;99.90;;;;;;5032811;28;20447;-77
2022/05/25 03:03:22;;;;;;;1.23;0.70;;;13.20;99.90;;;;;;5032596;28;20673;-76
2022/05/25 03:05:48;;;;;;;0.73;0.73;;;13.10;99.90;;;;;;5033639;28;20175;-77
2022/05/25 03:08:13;;;;;;;0.90;0.70;;;13.10;99.90;;;;;;5033631;28;20182;-76
2022/05/25 03:10:39;;;;;;;2.20;0.80;;;13.00;99.90;;;;;;5032755;28;20968;-77
2022/05/25 03:13:07;;;;;;;0.80;0.70;;;13.00;99.90;;;;;;5032585;28;20614;-76
2022/05/25 03:15:33;;;;;;;2.83;1.60;;;13.00;99.90;;;;;;5033613;28;20240;-76
2022/05/25 03:17:58;;;;;;;0.80;0.80;;;13.00;99.90;;;;;;5033495;28;20835;-78
2022/05/25 03:20:24;;;;;;;0.70;0.70;;;12.90;99.90;;;;;;5032799;28;20401;-73
2022/05/25 03:22:49;;;;;;;0.70;0.70;;;13.00;99.90;;;;;;5032869;28;20560;-75
2022/05/25 03:25:15;;;;;;;2.80;0.90;;;12.90;99.90;;;;;;5033008;28;20255;-74
2022/05/25 03:27:40;;;;;;;1.20;0.80;;;12.90;99.90;;;;;;5032674;28;20178;-75
2022/05/25 03:30:08;;;;;;;2.87;0.67;;;12.90;99.90;;;;;;5032804;28;20308;-75
2022/05/25 03:32:34;;;;;;;1.33;0.90;;;12.90;99.90;;;;;;5032303;28;20201;-74
2022/05/25 03:35:00;;;;;;;0.80;0.80;;;12.80;99.90;;;;;;5031579;28;20417;-75
2022/05/25 03:37:26;;;;;;;0.80;0.80;;;12.80;99.90;;;;;;5032462;28;20420;-75
2022/05/25 03:39:52;;;;;;;1.60;0.77;;;12.90;99.90;;;;;;5032835;28;20173;-75
2022/05/25 03:42:18;;;;;;;1.60;0.70;;;12.80;99.90;;;;;;5031747;28;20956;-76
2022/05/25 03:44:44;;;;;;;0.80;0.70;;;12.90;99.90;;;;;;5032062;28;20677;-75
2022/05/25 03:47:10;;;;;;;2.60;0.70;;;12.80;99.90;;;;;;5032767;28;20471;-75
2022/05/25 03:49:36;;;;;;;5.00;1.43;;;12.80;99.90;;;;;;5032668;28;20408;-75
2022/05/25 03:52:04;;;;;;;0.73;0.70;;;12.80;99.90;;;;;;5031716;28;20284;-73
2022/05/25 03:54:30;;;;;;;1.77;0.63;;;12.70;99.90;;;;;;5032296;28;20220;-75
2022/05/25 03:56:56;;;;;;;1.47;0.90;;;12.70;99.90;;;;;;5032658;28;20412;-75
2022/05/25 03:59:21;;;;;;;0.70;0.70;;;12.70;99.90;;;;;;5032397;28;20921;-74
2022/05/25 04:01:47;;;;;;;0.70;0.70;;;12.70;99.90;;;;;;5030299;28;20193;-75
2022/05/25 04:04:12;;;;;;;0.80;0.80;;;12.70;99.90;;;;;;5032427;28;20168;-72
2022/05/25 04:06:38;;;;;;;0.90;0.80;;;12.70;99.90;;;;;;5031923;28;20178;-71
2022/05/25 04:09:05;;;;;;;0.80;0.80;;;12.70;99.90;;;;;;5032177;28;20178;-71
2022/05/25 04:11:31;;;;;;;0.73;0.73;;;12.70;99.90;;;;;;5031586;28;20225;-71
2022/05/25 04:13:57;;;;;;;6.10;0.80;;;12.70;99.90;;;;;;5032371;28;20870;-73
2022/05/25 04:16:23;;;;;;;1.00;0.70;;;12.70;99.90;;;;;;5032293;28;20478;-73
2022/05/25 04:18:49;;;;;;;0.80;0.80;;;12.70;99.90;;;;;;5031867;28;20170;-74
2022/05/25 04:21:14;;;;;;;3.23;0.80;;;12.70;99.90;;;;;;5031526;28;20505;-75
2022/05/25 04:23:40;;;;;;;1.23;0.80;;;12.70;99.90;;;;;;5032253;28;20186;-76
2022/05/25 04:26:06;;;;;;;1.63;0.73;;;12.80;99.90;;;;;;5031596;28;20182;-77
2022/05/25 04:28:31;;;;;;;1.93;1.13;;;12.80;99.90;;;;;;5032056;28;20378;-75
2022/05/25 04:30:57;;;;;;;1.43;0.83;;;12.80;99.90;;;;;;5030093;28;20213;-76
2022/05/25 04:33:22;;;;;;;1.53;0.70;;;12.90;99.90;;;;;;5031794;28;20212;-75
2022/05/25 04:35:48;;;;;;;2.00;0.90;;;12.80;99.90;;;;;;5031900;28;20167;-76
2022/05/25 04:38:15;;;;;;;0.80;0.80;;;12.80;99.90;;;;;;5031647;28;20254;-75
2022/05/25 04:40:43;;;;;;;1.00;0.90;;;12.90;99.90;;;;;;5030512;28;20257;-76
2022/05/25 04:43:14;;;;;;;7.23;0.80;;;12.90;99.90;;;;;;5031694;28;20500;-73
2022/05/25 04:45:41;;;;;;;0.90;0.67;;;12.90;99.90;;;;;;5031610;28;20417;-73
2022/05/25 04:48:07;;;;;;;1.90;0.70;;;13.00;99.90;;;;;;5031830;28;20967;-75
2022/05/25 04:50:36;;;;;;;1.00;0.90;;;13.00;99.90;;;;;;5029747;28;20421;-72
2022/05/25 04:53:04;;;;;;;6.00;0.70;;;13.00;99.90;;;;;;5031665;28;20642;-73
2022/05/25 04:58:23;;;;;;;0.77;0.77;;;13.10;99.90;;;;;;5031903;28;20411;-75
2022/05/25 05:00:50;;;;;;;1.03;0.93;;;13.10;99.90;;;;;;5030752;28;20421;-75
2022/05/25 05:03:17;;;;;;;3.20;0.83;;;13.20;99.90;;;;;;5029745;28;20420;-76
2022/05/25 05:05:43;;;;;;;5.60;0.97;;;13.30;99.90;;;;;;5022114;28;20957;-72
2022/05/25 05:08:09;;;;;;;1.10;1.00;;;13.30;99.90;;;;;;5020050;28;20433;-75
2022/05/25 05:10:35;;;;;;;1.77;0.77;;;13.40;99.90;;;;;;5027049;28;21044;-73
2022/05/25 05:13:04;;;;;;;1.23;1.00;;;13.50;99.90;;;;;;5021082;28;20507;-75
2022/05/25 05:15:35;;;;;;;1.93;0.83;;;13.60;99.90;;;;;;5027939;28;20418;-75
2022/05/25 05:18:01;;;;;;;10.33;2.23;;;13.80;99.90;;;;;;5017524;28;20441;-75
2022/05/25 05:20:27;;;;;;;1.20;0.70;;;14.00;99.90;;;;;;5022331;28;20406;-73
2022/05/25 05:22:53;;;;;;;1.83;0.83;;;14.20;99.90;;;;;;5023057;28;20440;-74
2022/05/25 05:25:18;;;;;;;3.37;1.17;;;14.80;99.90;;;;;;5022300;28;20419;-73
2022/05/25 05:27:45;;;;;;;0.80;0.80;;;15.30;99.90;;;;;;5024592;28;20547;-74
2022/05/25 05:30:14;;;;;;;4.90;1.00;;;16.10;99.90;;;;;;5017913;28;20166;-73
2022/05/25 05:32:39;;;;;;;0.80;0.70;;;17.50;99.90;;;;;;5013499;28;20473;-74
2022/05/25 05:35:06;;;;;;;1.60;0.93;;;18.80;99.90;;;;;;5010911;28;20410;-74
2022/05/25 05:37:38;;;;;;;5.90;0.90;;;19.90;99.90;;;;;;5010360;28;20651;-73
2022/05/25 05:40:08;;;;;;;1.07;0.60;;;20.70;99.90;;;;;;5010775;28;20429;-74
2022/05/25 05:42:38;;;;;;;1.13;0.63;;;20.70;99.90;;;;;;5010567;28;20968;-73
2022/05/25 05:45:17;;;;;;;0.80;0.70;;;20.50;99.90;;;;;;5010789;28;20414;-73
2022/05/25 05:48:04;;;;;;;2.90;0.70;;;19.70;99.90;;;;;;5010667;28;20505;-71
2022/05/25 05:50:31;;;;;;;1.27;0.60;;;19.70;99.90;;;;;;5010852;28;20420;-74
2022/05/25 05:52:56;;;;;;;2.73;0.70;;;19.70;99.90;;;;;;5022300;28;20466;-73
2022/05/25 05:55:23;;;;;;;1.50;0.87;;;19.70;99.90;;;;;;5010753;28;20418;-70
2022/05/25 05:57:49;;;;;;;1.47;0.60;;;19.30;99.90;;;;;;5010287;28;20179;-74
2022/05/25 06:00:16;;;;;;;0.60;0.60;;;18.60;99.90;;;;;;5010642;28;20418;-73
2022/05/25 06:02:43;;;;;;;0.83;0.83;;;18.30;99.90;;;;;;5009824;28;20252;-73
2022/05/25 06:05:10;;;;;;;1.93;0.80;;;18.00;99.90;;;;;;5011697;28;20418;-74
2022/05/25 06:07:36;;;;;;;0.60;0.60;;;17.70;99.90;;;;;;5011091;28;20517;-73
2022/05/25 06:10:04;;;;;;;5.50;0.90;;;17.50;99.90;;;;;;5010638;28;20425;-71
2022/05/25 06:12:30;;;;;;;1.03;0.60;;;17.50;99.90;;;;;;5010763;28;21020;-73
2022/05/25 06:14:56;;;;;;;3.47;0.60;;;17.70;99.90;;;;;;5011762;28;20425;-72
2022/05/25 06:20:06;;;;;;;2.50;0.50;;;18.60;99.90;;;;;;5010789;28;20309;-74
2022/05/25 06:22:32;;;;;;;1.50;0.70;;;18.60;99.90;;;;;;5009642;28;20854;-74
2022/05/25 06:24:59;;;;;;;2.50;0.90;;;18.50;99.90;;;;;;5010045;28;20413;-74
2022/05/25 06:27:24;;;;;;;5.17;0.70;;;18.50;99.90;;;;;;5010459;28;20424;-74
2022/05/25 06:29:50;;;;;;;3.23;0.90;;;18.50;99.90;;;;;;5010325;28;20429;-73
2022/05/25 06:32:22;;;;;;;0.60;0.60;;;18.20;99.90;;;;;;5007935;28;20210;-75
2022/05/25 06:34:48;;;;;;;0.70;0.70;;;18.00;99.90;;;;;;5009632;28;20827;-75
2022/05/25 06:37:16;;;;;;;2.03;1.03;;;17.90;99.90;;;;;;5010339;28;20410;-73
2022/05/25 06:39:42;;;;;;;1.40;0.57;;;17.70;99.90;;;;;;5010462;28;20186;-72
2022/05/25 06:42:07;;;;;;;1.27;0.70;;;17.60;99.90;;;;;;5009213;28;20434;-73
2022/05/25 06:44:33;;;;;;;1.30;0.77;;;17.70;99.90;;;;;;5010257;28;20665;-72
2022/05/25 06:46:59;;;;;;;6.97;0.93;;;17.70;99.90;;;;;;5010522;28;20257;-74
2022/05/25 06:49:24;;;;;;;2.30;0.80;;;17.80;99.90;;;;;;5010096;28;20179;-73
2022/05/25 06:51:50;;;;;;;2.23;0.70;;;17.90;99.90;;;;;;5009676;28;20203;-74
2022/05/25 06:54:18;;;;;;;0.77;0.77;;;17.80;99.90;;;;;;5009966;28;20724;-73
2022/05/25 06:56:44;;;;;;;1.87;0.70;;;17.80;99.90;;;;;;5009862;28;20262;-74
2022/05/25 06:59:10;;;;;;;3.07;0.80;;;17.80;99.90;;;;;;5010505;28;20868;-77
2022/05/25 07:01:37;;;;;;;1.10;0.60;;;18.40;99.90;;;;;;5009829;28;20199;-78
2022/05/25 07:04:03;;;;;;;1.07;0.70;;;19.10;99.90;;;;;;5010242;28;20183;-75
2022/05/25 07:06:29;;;;;;;2.53;0.87;;;19.70;99.90;;;;;;5009903;28;20421;-77
2022/05/25 07:08:55;;;;;;;2.00;0.50;;;20.20;99.90;;;;;;5010149;28;20472;-77
2022/05/25 07:11:21;;;;;;;1.83;0.70;;;20.90;99.90;;;;;;5009194;28;20284;-74
2022/05/25 07:13:47;;;;;;;2.70;0.60;;;21.30;99.90;;;;;;5010181;28;20733;-74
2022/05/25 07:16:16;;;;;;;0.97;0.80;;;21.70;99.90;;;;;;5013374;28;20445;-74
2022/05/25 07:18:43;;;;;;;2.50;0.80;;;21.50;99.90;;;;;;5013738;28;20213;-72
2022/05/25 07:21:26;;;;;;;0.80;0.70;;;21.80;99.90;;;;;;5012612;28;20904;-74
2022/05/25 07:23:53;;;;;;;3.73;0.80;;;22.30;99.90;;;;;;5013929;28;20937;-75
2022/05/25 07:26:20;;;;;;;0.80;0.70;;;22.40;99.90;;;;;;5012857;28;20448;-73
2022/05/25 07:28:46;;;;;;;0.90;0.70;;;22.30;99.90;;;;;;5013523;28;20417;-73
2022/05/25 07:31:28;;;;;;;1.73;0.60;;;22.60;99.90;;;;;;5012327;28;20950;-73
2022/05/25 07:34:02;;;;;;;0.80;0.70;;;22.70;99.90;;;;;;5013174;28;20860;-74
2022/05/25 07:36:29;;;;;;;1.80;0.70;;;22.90;99.90;;;;;;5013196;28;20475;-74
2022/05/25 07:38:58;;;;;;;1.63;0.73;;;23.30;99.90;;;;;;5012839;28;20426;-74
2022/05/25 07:41:24;;;;;;;1.63;0.80;;;23.40;99.90;;;;;;5012131;28;20503;-72
2022/05/25 07:43:57;;;;;;;0.93;0.83;;;23.40;99.90;;;;;;5013226;28;20464;-73
2022/05/25 07:46:26;;;;;;;2.53;0.90;;;23.60;99.90;;;;;;5013107;28;20487;-70
2022/05/25 07:48:52;;;;;;;2.23;0.70;;;24.00;99.90;;;;;;5012022;28;20422;-74
2022/05/25 07:51:18;;;;;;;2.97;0.70;;;23.60;99.90;;;;;;5011399;28;20441;-74
2022/05/25 07:53:55;;;;;;;0.70;0.60;;;23.90;99.90;;;;;;5014478;28;20250;-73
2022/05/25 07:56:22;;;;;;;1.00;0.70;;;24.30;99.90;;;;;;5012885;28;20794;-73
2022/05/25 07:58:49;;;;;;;2.00;0.70;;;24.60;99.90;;;;;;5029090;28;20468;-74
2022/05/25 08:05:43;;;;;;;3.07;0.80;;;24.50;99.90;;;;;;5012530;28;20942;-74
2022/05/25 08:06:54;;;;;;;2.40;0.60;;;24.20;99.90;;;;;;5012801;28;20472;-75
2022/05/25 08:09:20;;;;;;;0.60;0.60;;;24.00;99.90;;;;;;5012663;28;20829;-74
2022/05/25 08:11:45;;;;;;;0.63;0.63;;;24.10;99.90;;;;;;5011782;28;20666;-73
2022/05/25 08:14:11;;;;;;;2.97;0.60;;;24.20;99.90;;;;;;5012495;28;20671;-74
2022/05/25 08:16:36;;;;;;;2.30;0.60;;;24.40;99.90;;;;;;5012106;28;20194;-73
2022/05/25 08:19:02;;;;;;;1.93;0.67;;;24.00;99.90;;;;;;5012402;28;20265;-73
2022/05/25 08:21:27;;;;;;;3.60;0.67;;;24.10;99.90;;;;;;5011666;28;20190;-74
2022/05/25 08:23:53;;;;;;;3.33;0.60;;;24.20;99.90;;;;;;5012423;28;20274;-74
2022/05/25 08:26:18;;;;;;;2.60;0.60;;;25.00;99.90;;;;;;5011205;28;20647;-74
2022/05/25 08:28:43;;;;;;;3.07;0.80;;;24.80;99.90;;;;;;5012273;28;20621;-74
2022/05/25 08:31:09;;;;;;;2.10;0.90;;;24.50;99.90;;;;;;5010847;28;20210;-74
2022/05/25 08:33:35;;;;;;;1.90;0.57;;;24.00;99.90;;;;;;5012082;28;20605;-74
2022/05/25 08:36:00;;;;;;;0.50;0.50;;;24.70;99.90;;;;;;5012036;28;20175;-74
2022/05/25 08:38:26;;;;;;;0.60;0.57;;;25.30;99.90;;;;;;5012141;28;20170;-74
2022/05/25 08:40:53;;;;;;;1.70;0.60;;;25.20;99.90;;;;;;5010856;28;20179;-74
2022/05/25 08:43:34;;;;;;;1.03;0.70;;;24.50;99.90;;;;;;5011827;28;20417;-74
2022/05/25 08:46:03;;;;;;;1.37;0.80;;;24.40;99.90;;;;;;5012237;28;20409;-74
2022/05/25 08:48:31;;;;;;;0.70;0.60;;;24.30;99.90;;;;;;5011889;28;20934;-74
2022/05/25 08:51:04;;;;;;;0.77;0.60;;;24.00;99.90;;;;;;5011091;28;20433;-74
2022/05/25 08:53:30;;;;;;;1.23;0.70;;;23.60;99.90;;;;;;5011349;28;20462;-73
2022/05/25 08:56:12;;;;;;;1.90;1.00;;;23.00;99.90;;;;;;5011821;28;20447;-74
2022/05/25 08:58:55;;;;;;;2.20;0.70;;;22.50;99.90;;;;;;5011879;28;20250;-74
2022/05/25 09:01:57;;;;;;;2.33;0.60;;;22.10;99.90;;;;;;5010837;28;20472;-74
2022/05/25 09:04:34;;;;;;;9.93;0.93;;;21.60;99.90;;;;;;5011638;28;20447;-73
2022/05/25 09:07:29;;;;;;;1.33;0.73;;;21.40;99.90;;;;;;5011405;28;20849;-76
2022/05/25 09:09:55;;;;;;;0.90;0.50;;;22.30;99.90;;;;;;5011609;28;20414;-74
2022/05/25 09:12:32;;;;;;;1.53;0.50;;;23.50;99.90;;;;;;5010877;28;20532;-78
2022/05/25 09:15:12;;;;;;;1.10;0.60;;;24.20;99.90;;;;;;5011638;28;20412;-75
2022/05/25 09:17:54;;;;;;;1.37;0.73;;;25.20;99.90;;;;;;5011592;28;20409;-76
2022/05/25 09:20:25;;;;;;;3.13;0.70;;;25.80;99.90;;;;;;5010561;28;20429;-78
2022/05/25 09:22:52;;;;;;;1.27;0.70;;;25.90;99.90;;;;;;5011058;28;21003;-76
2022/05/25 09:25:18;;;;;;;2.00;0.70;;;26.40;99.90;;;;;;5011270;28;20906;-77
2022/05/25 09:27:47;;;;;;;1.77;0.60;;;25.90;99.90;;;;;;5011505;28;20951;-77
2022/05/25 09:30:15;;;;;;;5.43;0.60;;;24.50;99.90;;;;;;5010986;28;20414;-74
2022/05/25 09:32:52;;;;;;;4.77;0.50;;;23.50;99.90;;;;;;5010433;28;20978;-74
2022/05/25 09:35:24;;;;;;;3.80;0.70;;;22.90;99.90;;;;;;5010702;28;20417;-74
2022/05/25 09:38:01;;;;;;;2.10;0.50;;;22.50;99.90;;;;;;5010886;28;20915;-74
2022/05/25 09:40:40;;;;;;;2.70;0.70;;;22.30;99.90;;;;;;5010336;28;20425;-73
2022/05/25 09:43:11;;;;;;;0.60;0.60;;;22.50;99.90;;;;;;5010974;28;20772;-74
2022/05/25 09:45:56;;;;;;;1.10;0.50;;;23.20;99.90;;;;;;5010960;28;20410;-75
2022/05/25 09:48:22;;;;;;;1.73;0.60;;;24.10;99.90;;;;;;5010346;28;20500;-74
2022/05/25 09:50:52;;;;;;;2.37;0.60;;;24.10;99.90;;;;;;5010062;28;20420;-75
2022/05/25 09:53:21;;;;;;;1.53;0.60;;;24.00;99.90;;;;;;5010705;28;20464;-75
2022/05/25 09:55:54;;;;;;;1.73;0.70;;;23.80;99.90;;;;;;5010661;28;20448;-74
2022/05/25 09:58:34;;;;;;;0.77;0.77;;;23.80;99.90;;;;;;5010765;28;20898;-76
2022/05/25 10:01:05;;;;;;;8.83;1.03;;;23.70;99.90;;;;;;5010053;28;20461;-77
2022/05/25 10:03:41;;;;;;;1.23;0.70;;;24.20;99.90;;;;;;5010460;28;20492;-74
2022/05/25 10:06:32;;;;;;;2.30;0.60;;;24.70;99.90;;;;;;5010556;28;20424;-74
2022/05/25 10:09:23;;;;;;;1.33;0.50;;;25.10;99.90;;;;;;5010877;28;20405;-74
2022/05/25 10:11:54;;;;;;;1.37;0.70;;;26.10;99.90;;;;;;5009730;28;20436;-74
2022/05/25 10:14:32;;;;;;;3.43;0.53;;;26.50;99.90;;;;;;5010685;28;20504;-73
2022/05/25 10:17:28;;;;;;;2.57;0.80;;;26.70;99.70;;;;;;5010891;28;20406;-74
2022/05/25 10:19:55;;;;;;;2.10;0.60;;;25.70;97.50;;;;;;5010157;28;20842;-73
2022/05/25 10:22:46;;;;;;;2.77;0.53;;;25.10;99.90;;;;;;5009642;28;20867;-73
2022/05/25 10:25:34;;;;;;;5.73;0.80;;;24.80;99.90;;;;;;5010485;28;20420;-73
2022/05/25 10:28:01;;;;;;;1.63;0.60;;;24.10;99.90;;;;;;5009876;28;20409;-74
2022/05/25 10:36:49;;;;;;;1.63;0.70;;;23.00;99.90;;;;;;5010548;28;20464;-76
2022/05/25 10:39:29;;;;;;;1.37;0.50;;;22.70;99.90;;;;;;5010204;28;20416;-75
2022/05/25 10:42:04;;;;;;;8.87;0.70;;;22.30;99.90;;;;;;5009564;28;20436;-74
2022/05/25 10:44:46;;;;;;;5.00;0.60;;;22.30;99.90;;;;;;5011004;28;20413;-74
2022/05/25 10:47:54;;;;;;;3.80;0.60;;;22.30;99.90;;;;;;5011740;28;20417;-74
2022/05/25 10:50:25;;;;;;;3.53;0.80;;;22.10;99.90;;;;;;5013064;28;20401;-74
2022/05/25 10:53:14;;;;;;;1.67;0.60;;;21.90;99.90;;;;;;5013640;28;20465;-74
2022/05/25 10:55:53;;;;;;;0.73;0.70;;;21.60;99.90;;;;;;5014163;28;20441;-78
2022/05/25 10:58:22;;;;;;;0.80;0.60;;;21.50;99.90;;;;;;5013741;28;20411;-75
2022/05/25 11:01:05;;;;;;;4.10;0.70;;;21.80;99.90;;;;;;5013144;28;20402;-75
2022/05/25 11:03:49;;;;;;;2.33;0.60;;;21.80;99.90;;;;;;5014242;28;20417;-73
2022/05/25 11:06:35;;;;;;;2.27;0.60;;;22.20;99.90;;;;;;5013875;28;20413;-73
2022/05/25 11:09:41;;;;;;;2.50;0.40;;;23.00;99.90;;;;;;5013186;28;20444;-73
2022/05/25 11:12:25;;;;;;;2.90;0.63;;;23.70;99.90;;;;;;5003670;28;20451;-72
2022/05/25 11:15:10;;;;;;;3.33;0.50;;;23.70;99.90;;;;;;5013699;28;20409;-74
2022/05/25 11:17:56;;;;;;;0.90;0.50;;;23.40;99.90;;;;;;5013714;28;20416;-73
2022/05/25 11:20:44;;;;;;;1.80;0.80;;;23.20;99.90;;;;;;5013387;28;21946;-72
2022/05/25 11:23:31;;;;;;;4.93;0.83;;;22.90;99.90;;;;;;5013818;28;20933;-74
2022/05/25 11:26:23;;;;;;;4.00;0.60;;;22.60;99.90;;;;;;5013491;28;20793;-74
2022/05/25 11:29:07;;;;;;;4.10;0.60;;;22.40;99.90;;;;;;5011458;28;20853;-74
2022/05/25 11:32:00;;;;;;;3.33;0.70;;;22.30;99.90;;;;;;5012124;28;20457;-74
2022/05/25 11:34:45;;;;;;;3.00;0.60;;;22.30;99.90;;;;;;5023743;28;20460;-73
2022/05/25 11:37:26;;;;;;;1.37;0.50;;;23.00;99.90;;;;;;5033004;28;20401;-73
2022/05/25 11:39:59;;;;;;;1.37;0.50;;;23.70;99.90;;;;;;5032926;28;20407;-73
2022/05/25 11:42:43;;;;;;;2.67;0.60;;;24.00;99.90;;;;;;5031976;28;20436;-73
2022/05/25 11:45:18;;;;;;;1.27;0.50;;;24.10;99.90;;;;;;5032139;28;20415;-74
2022/05/25 11:47:46;;;;;;;0.63;0.57;;;24.10;99.90;;;;;;5033171;28;20404;-72
2022/05/25 11:50:12;;;;;;;0.60;0.60;;;24.10;99.60;;;;;;5032679;28;20455;-73
2022/05/25 11:52:56;;;;;;;1.93;0.70;;;24.20;99.90;;;;;;5031856;28;20495;-73
2022/05/25 11:55:36;;;;;;;1.73;0.80;;;24.10;99.90;;;;;;5032066;28;20602;-71
2022/05/25 11:58:26;;;;;;;0.80;0.80;;;23.90;99.90;;;;;;5032462;28;20409;-72
2022/05/25 12:01:09;;;;;;;1.67;0.50;;;23.50;99.90;;;;;;5031513;28;20925;-73
2022/05/25 12:04:05;;;;;;;4.53;0.60;;;23.40;99.90;;;;;;5032781;28;20955;-72
2022/05/25 12:06:59;;;;;;;1.93;0.67;;;23.00;99.80;;;;;;5032428;28;20750;-73
2022/05/25 12:09:48;;;;;;;4.33;0.90;;;22.70;99.90;;;;;;5032080;28;20416;-72
2022/05/25 12:12:34;;;;;;;1.13;0.60;;;22.80;99.90;;;;;;5031354;28;20487;-74
2022/05/25 12:15:18;;;;;;;3.17;0.70;;;23.00;99.70;;;;;;5032204;28;20496;-73
2022/05/25 12:18:09;;;;;;;0.90;0.50;;;23.20;98.60;;;;;;5032397;28;20400;-71
2022/05/25 12:20:44;;;;;;;0.90;0.60;;;23.50;99.90;;;;;;5031164;28;20411;-72
2022/05/25 12:23:17;;;;;;;1.53;0.60;;;23.70;99.30;;;;;;5031999;28;20416;-73
2022/05/25 12:25:51;;;;;;;0.83;0.50;;;23.60;98.30;;;;;;5032235;28;20421;-71
2022/05/25 12:28:17;;;;;;;1.30;0.60;;;23.30;98.70;;;;;;5030171;28;20512;-72
2022/05/25 12:30:47;;;;;;;8.13;0.73;;;23.10;99.50;;;;;;5031035;28;20873;-70
2022/05/25 12:33:19;;;;;;;0.60;0.60;;;22.90;99.90;;;;;;5026815;28;20197;-73
2022/05/25 12:35:45;;;;;;;1.50;0.50;;;22.90;99.90;;;;;;5024738;28;20511;-73
2022/05/25 12:38:11;;;;;;;0.70;0.50;;;22.80;99.90;;;;;;5021634;28;20436;-73
2022/05/25 12:41:22;;;;;;;2.93;0.50;;;22.50;98.70;;;;;;5023583;28;20423;-71
2022/05/25 12:43:54;;;;;;;2.77;0.60;;;22.80;99.90;;;;;;5015372;28;20275;-73
2022/05/25 12:49:34;;;;;;;3.47;0.60;;;22.20;99.00;;;;;;5023812;28;20460;-73
2022/05/25 12:52:00;;;;;;;1.97;0.63;;;22.10;99.90;;;;;;5024089;28;20452;-73
2022/05/25 12:54:31;;;;;;;1.00;0.57;;;22.30;99.90;;;;;;5028853;28;20495;-74
2022/05/25 12:56:59;;;;;;;2.40;0.60;;;22.40;99.90;;;;;;5028481;28;20189;-73
2022/05/25 12:59:40;;;;;;;2.10;0.60;;;22.70;99.90;;;;;;5025689;28;20412;-74
2022/05/25 13:02:21;;;;;;;1.60;0.50;;;22.90;99.90;;;;;;5024106;28;20491;-72
2022/05/25 13:05:02;;;;;;;7.07;0.53;;;23.00;98.80;;;;;;5023465;28;20432;-73
2022/05/25 13:07:33;;;;;;;1.83;0.53;;;23.10;99.30;;;;;;5018155;28;20780;-73
2022/05/25 13:09:59;;;;;;;1.13;0.63;;;23.30;99.90;;;;;;5011746;28;20476;-72
2022/05/25 13:12:40;;;;;;;1.60;0.70;;;23.40;99.90;;;;;;5026778;28;20441;-73
2022/05/25 13:15:14;;;;;;;1.53;0.50;;;23.70;99.90;;;;;;5026327;28;20416;-72
2022/05/25 13:17:43;;;;;;;1.50;0.80;;;23.80;99.90;;;;;;5018991;28;20425;-73
2022/05/25 13:20:14;;;;;;;2.27;0.57;;;23.70;98.50;;;;;;5026789;28;20448;-72
2022/05/25 13:22:40;;;;;;;0.90;0.50;;;23.30;97.20;;;;;;5020984;28;20441;-73
2022/05/25 13:25:38;;;;;;;2.20;0.50;;;23.00;97.90;;;;;;5024313;28;20438;-73
2022/05/25 13:28:39;;;;;;;0.70;0.50;;;23.00;99.00;;;;;;5023831;28;20186;-72
2022/05/25 13:31:19;;;;;;;2.70;1.43;;;23.10;98.50;;;;;;5015601;28;20469;-73
2022/05/25 13:33:46;;;;;;;4.00;0.60;;;23.10;98.90;;;;;;5021998;28;20479;-73
2022/05/25 13:36:23;;;;;;;4.87;1.53;;;23.30;98.30;;;;;;5024596;28;20432;-74
2022/05/25 13:39:14;;;;;;;0.60;0.60;;;23.40;98.90;;;;;;5023868;28;20450;-73
2022/05/25 13:41:52;;;;;;;8.03;0.73;;;23.50;99.90;;;;;;5017604;28;20468;-74
2022/05/25 13:44:23;;;;;;;2.73;0.90;;;23.40;98.40;;;;;;5021537;28;20952;-75
2022/05/25 13:46:55;;;;;;;3.20;0.60;;;23.30;96.50;;;;;;5020741;28;20989;-73
2022/05/25 13:49:25;;;;;;;0.83;0.50;;;23.40;98.60;;;;;;5013461;28;20587;-74
2022/05/25 13:52:11;;;;;;;1.23;0.67;;;23.60;99.10;;;;;;5024169;28;20448;-74
2022/05/25 13:54:38;;;;;;;2.07;0.50;;;23.60;98.20;;;;;;5030542;28;20941;-74
2022/05/25 13:57:07;;;;;;;1.47;0.60;;;23.60;97.20;;;;;;5030566;28;20906;-72
2022/05/25 13:59:35;;;;;;;1.63;0.60;;;23.70;98.70;;;;;;5030679;28;20420;-74
2022/05/25 14:02:27;;;;;;;1.33;0.70;;;23.60;98.10;;;;;;5028769;28;21041;-74
2022/05/25 14:04:58;;;;;;;1.70;0.50;;;23.40;97.70;;;;;;5030604;28;20462;-75
2022/05/25 14:07:41;;;;;;;3.67;0.60;;;23.10;97.90;;;;;;5030185;28;20420;-74
2022/05/25 14:13:21;;;;;;;2.20;0.50;;;22.60;98.90;;;;;;5030210;28;20462;-74
2022/05/25 14:16:07;;;;;;;3.93;0.60;;;22.50;97.90;;;;;;5029744;28;20431;-74
2022/05/25 14:18:50;;;;;;;0.50;0.50;;;22.50;99.30;;;;;;5030315;28;20404;-75
2022/05/25 14:21:38;;;;;;;0.83;0.70;;;22.70;99.70;;;;;;5029239;28;20510;-74
2022/05/25 14:24:09;;;;;;;4.20;1.87;;;22.90;99.90;;;;;;5031213;28;20413;-74
2022/05/25 14:26:37;;;;;;;1.60;0.60;;;22.90;98.60;;;;;;5033864;28;20571;-74
2022/05/25 14:29:06;;;;;;;1.20;0.47;;;22.90;99.70;;;;;;5033928;28;20433;-73
2022/05/25 14:31:39;;;;;;;0.77;0.50;;;22.70;99.20;;;;;;5033349;28;20460;-74
2022/05/25 14:34:08;;;;;;;10.40;0.60;;;22.50;99.90;;;;;;5033849;28;20506;-74
2022/05/25 14:36:34;;;;;;;1.10;0.53;;;22.50;99.90;;;;;;5034319;28;20466;-75
2022/05/25 14:39:01;;;;;;;0.83;0.60;;;22.40;99.80;;;;;;5033921;28;20423;-73
2022/05/25 14:41:41;;;;;;;0.80;0.50;;;22.30;99.10;;;;;;5032851;28;20436;-74
2022/05/25 14:44:07;;;;;;;1.43;0.63;;;22.30;99.00;;;;;;5034531;28;20408;-75
2022/05/25 14:46:38;;;;;;;1.00;0.60;;;22.30;99.30;;;;;;5035307;28;20845;-74
2022/05/25 14:49:07;;;;;;;0.60;0.60;;;22.40;99.90;;;;;;5033732;28;20663;-72
2022/05/25 14:51:42;;;;;;;3.07;0.70;;;22.50;99.90;;;;;;5033897;28;20436;-75
2022/05/25 14:54:12;;;;;;;1.17;0.70;;;22.50;99.90;;;;;;5034713;28;20982;-73
2022/05/25 14:56:39;;;;;;;1.13;0.50;;;22.50;99.90;;;;;;5029539;28;20427;-72
2022/05/25 14:59:06;;;;;;;4.10;0.70;;;22.50;99.20;;;;;;5012792;28;20539;-73
2022/05/25 15:01:36;;;;;;;2.03;0.50;;;22.50;99.50;;;;;;5013314;28;20433;-74
2022/05/25 15:04:09;;;;;;;1.13;0.70;;;22.30;99.20;;;;;;5011210;28;20795;-73
2022/05/25 15:06:40;;;;;;;5.50;0.70;;;22.30;99.90;;;;;;5020538;28;20554;-74